Time;durP1;ratioP1;P1;durP2;ratioP2;P2;SDS_P1;SDS_P2;PMS_P1;PMS_P2;Temp;Humidity;BMP_temperature;BMP_pressure;BME280_temperature;BME280_humidity;BME280_pressure;Samples;Min_cycle;Max_cycle;Signal;HPM_P1;HPM_P2
2024/03/25 00:01:40;;;;;;;14.95;2.60;;;;;;;;;;6179063;23;20028;-72
2024/03/25 00:04:06;;;;;;;16.85;3.25;;;;;;;;;;6148601;23;20028;-74
2024/03/25 00:06:33;;;;;;;13.07;2.42;;;;;;;;;;6174276;23;20031;-74
2024/03/25 00:09:02;;;;;;;15.75;3.10;;;;;;;;;;6167114;23;20486;-73
2024/03/25 00:11:27;;;;;;;9.85;2.17;;;;;;;;;;6179636;23;20025;-74
2024/03/25 00:13:53;;;;;;;20.63;2.88;;;;;;;;;;6171272;23;20110;-74
2024/03/25 00:16:18;;;;;;;11.85;2.67;;;;;;;;;;6177704;23;20350;-73
2024/03/25 00:18:43;;;;;;;18.75;2.95;;;;;;;;;;6179083;23;20482;-76
2024/03/25 00:21:09;;;;;;;11.82;2.22;;;;;;;;;;6143599;23;20119;-74
2024/03/25 00:23:34;;;;;;;20.13;2.80;;;;;;;;;;6177107;23;20028;-73
2024/03/25 00:26:00;;;;;;;11.27;2.30;;;;;;;;;;6172174;23;20104;-75
2024/03/25 00:28:25;;;;;;;14.10;2.30;;;;;;;;;;6179236;23;20147;-75
2024/03/25 00:30:50;;;;;;;17.00;2.55;;;;;;;;;;6153973;23;20027;-74
2024/03/25 00:33:19;;;;;;;14.15;2.10;;;;;;;;;;6165582;23;20135;-71
2024/03/25 00:35:45;;;;;;;10.80;1.95;;;;;;;;;;6172240;23;20024;-71
2024/03/25 00:38:11;;;;;;;7.43;1.90;;;;;;;;;;6171061;23;20044;-70
2024/03/25 00:40:36;;;;;;;14.75;2.45;;;;;;;;;;6178518;23;20351;-70
2024/03/25 00:43:02;;;;;;;15.38;2.65;;;;;;;;;;6151348;23;20051;-69
2024/03/25 00:45:30;;;;;;;14.43;2.55;;;;;;;;;;6169352;23;20025;-71
2024/03/25 00:47:56;;;;;;;12.73;2.25;;;;;;;;;;6173569;23;20024;-72
2024/03/25 00:50:21;;;;;;;13.80;2.88;;;;;;;;;;6165851;23;20024;-72
2024/03/25 00:52:47;;;;;;;14.50;2.78;;;;;;;;;;6177444;23;20024;-72
2024/03/25 00:55:12;;;;;;;17.83;3.40;;;;;;;;;;6172340;23;20027;-72
2024/03/25 00:57:38;;;;;;;12.95;2.42;;;;;;;;;;6176846;23;20024;-72
2024/03/25 01:00:04;;;;;;;16.80;3.03;;;;;;;;;;6178334;23;20095;-72
2024/03/25 01:02:30;;;;;;;13.75;2.20;;;;;;;;;;6167053;23;20028;-71
2024/03/25 01:04:56;;;;;;;19.45;2.63;;;;;;;;;;6173914;23;20036;-72
2024/03/25 01:07:21;;;;;;;21.63;3.33;;;;;;;;;;6170434;23;20024;-72
2024/03/25 01:09:47;;;;;;;14.90;2.38;;;;;;;;;;6176882;23;20021;-71
2024/03/25 01:12:12;;;;;;;18.38;2.67;;;;;;;;;;6179010;23;20020;-71
2024/03/25 01:14:38;;;;;;;15.75;2.58;;;;;;;;;;6172775;23;20089;-71
2024/03/25 01:17:03;;;;;;;20.17;3.25;;;;;;;;;;6175092;23;20079;-72
2024/03/25 01:19:29;;;;;;;17.30;2.95;;;;;;;;;;6169862;23;20031;-75
2024/03/25 01:21:54;;;;;;;17.88;2.90;;;;;;;;;;6179927;23;20036;-76
2024/03/25 01:24:20;;;;;;;23.48;3.65;;;;;;;;;;6181780;23;20131;-75
2024/03/25 01:26:45;;;;;;;18.73;2.78;;;;;;;;;;6173866;23;20020;-75
2024/03/25 01:29:12;;;;;;;19.08;3.38;;;;;;;;;;6155334;23;20070;-75
2024/03/25 01:31:38;;;;;;;23.65;3.40;;;;;;;;;;6142965;23;20021;-75
2024/03/25 01:34:03;;;;;;;19.17;3.20;;;;;;;;;;6181372;23;20035;-75
2024/03/25 01:36:29;;;;;;;22.27;3.95;;;;;;;;;;6175624;23;20024;-75
2024/03/25 01:38:54;;;;;;;18.15;3.30;;;;;;;;;;6180710;23;20013;-75
2024/03/25 01:41:20;;;;;;;17.17;3.58;;;;;;;;;;6181192;23;20024;-75
2024/03/25 01:43:46;;;;;;;15.23;3.42;;;;;;;;;;6143226;23;20335;-76
2024/03/25 01:46:11;;;;;;;17.00;2.47;;;;;;;;;;6177371;23;20026;-75
2024/03/25 01:48:37;;;;;;;18.67;3.85;;;;;;;;;;6175041;23;20034;-75
2024/03/25 01:51:02;;;;;;;18.13;3.40;;;;;;;;;;6180822;23;20107;-74
2024/03/25 01:53:29;;;;;;;18.27;3.15;;;;;;;;;;6180933;23;20017;-74
2024/03/25 01:55:56;;;;;;;23.15;2.88;;;;;;;;;;6173824;23;20042;-74
2024/03/25 01:58:22;;;;;;;20.10;3.42;;;;;;;;;;6176770;23;20021;-73
2024/03/25 02:00:48;;;;;;;24.02;3.55;;;;;;;;;;6168896;23;20475;-74
2024/03/25 02:03:15;;;;;;;21.45;3.33;;;;;;;;;;6180484;23;20020;-74
2024/03/25 02:05:40;;;;;;;22.35;3.20;;;;;;;;;;6180819;23;20025;-74
2024/03/25 02:08:06;;;;;;;35.15;3.70;;;;;;;;;;6174027;23;20028;-74
2024/03/25 02:10:31;;;;;;;19.33;3.53;;;;;;;;;;6180450;23;20031;-74
2024/03/25 02:12:57;;;;;;;27.40;4.18;;;;;;;;;;6168833;23;20035;-75
2024/03/25 02:15:22;;;;;;;20.77;2.83;;;;;;;;;;6176452;23;20025;-75
2024/03/25 02:17:48;;;;;;;13.30;2.70;;;;;;;;;;6176033;23;20020;-75
2024/03/25 02:20:15;;;;;;;19.13;3.58;;;;;;;;;;6155804;23;20052;-75
2024/03/25 02:22:41;;;;;;;19.38;3.90;;;;;;;;;;6180158;23;20455;-75
2024/03/25 02:25:08;;;;;;;18.85;3.50;;;;;;;;;;6173564;23;20017;-74
2024/03/25 02:27:34;;;;;;;19.52;3.40;;;;;;;;;;6176631;23;20020;-75
2024/03/25 02:30:07;;;;;;;23.48;4.00;;;;;;;;;;6169312;23;20048;-75
2024/03/25 02:32:33;;;;;;;16.60;3.22;;;;;;;;;;6180864;23;20020;-75
2024/03/25 02:34:59;;;;;;;15.00;3.55;;;;;;;;;;6179911;23;20021;-74
2024/03/25 02:37:25;;;;;;;25.77;3.85;;;;;;;;;;6151838;23;20059;-75
2024/03/25 02:39:51;;;;;;;20.98;3.30;;;;;;;;;;6182553;23;20025;-75
2024/03/25 02:42:17;;;;;;;18.48;3.55;;;;;;;;;;6169279;23;20032;-75
2024/03/25 02:44:43;;;;;;;16.92;3.55;;;;;;;;;;6179892;23;20020;-75
2024/03/25 02:47:09;;;;;;;21.92;3.45;;;;;;;;;;6183035;23;20016;-74
2024/03/25 02:49:35;;;;;;;17.25;4.07;;;;;;;;;;6175580;23;20020;-75
2024/03/25 02:52:01;;;;;;;21.90;3.67;;;;;;;;;;6181891;23;20020;-74
2024/03/25 02:54:26;;;;;;;14.80;3.13;;;;;;;;;;6148340;23;20086;-75
2024/03/25 02:56:52;;;;;;;18.33;3.28;;;;;;;;;;6153507;23;20036;-74
2024/03/25 02:59:17;;;;;;;20.90;3.50;;;;;;;;;;6175500;23;20071;-75
2024/03/25 03:01:42;;;;;;;19.83;3.38;;;;;;;;;;6182222;23;20095;-74
2024/03/25 03:04:08;;;;;;;21.25;3.50;;;;;;;;;;6182622;23;20024;-75
2024/03/25 03:06:33;;;;;;;17.10;3.50;;;;;;;;;;6175566;23;20040;-75
2024/03/25 03:08:59;;;;;;;21.70;3.45;;;;;;;;;;6177428;23;20028;-73
2024/03/25 03:11:24;;;;;;;21.85;3.35;;;;;;;;;;6170320;23;20025;-74
2024/03/25 03:13:50;;;;;;;19.33;3.88;;;;;;;;;;6181208;23;20024;-75
2024/03/25 03:16:15;;;;;;;17.17;3.78;;;;;;;;;;6157573;23;20071;-74
2024/03/25 03:18:41;;;;;;;23.05;3.83;;;;;;;;;;6149862;23;20024;-76
2024/03/25 03:21:06;;;;;;;20.50;3.80;;;;;;;;;;6157721;23;20021;-75
2024/03/25 03:23:31;;;;;;;20.73;3.53;;;;;;;;;;6170805;23;20024;-76
2024/03/25 03:25:59;;;;;;;19.88;4.13;;;;;;;;;;6177023;23;20020;-76
2024/03/25 03:28:25;;;;;;;14.32;2.90;;;;;;;;;;6181888;23;20051;-76
2024/03/25 03:30:50;;;;;;;18.50;2.90;;;;;;;;;;6148965;23;20356;-75
2024/03/25 03:33:16;;;;;;;15.32;3.38;;;;;;;;;;6156746;23;20035;-74
2024/03/25 03:35:42;;;;;;;20.65;3.00;;;;;;;;;;6171633;23;20027;-75
2024/03/25 03:38:07;;;;;;;17.52;3.60;;;;;;;;;;6153538;23;20028;-75
2024/03/25 03:40:33;;;;;;;18.80;4.38;;;;;;;;;;6173609;23;20029;-77
2024/03/25 03:42:58;;;;;;;26.63;4.22;;;;;;;;;;6177230;23;20021;-75
2024/03/25 03:45:24;;;;;;;18.20;3.83;;;;;;;;;;6180545;23;20025;-74
2024/03/25 03:47:50;;;;;;;26.20;4.70;;;;;;;;;;6174811;23;20020;-74
2024/03/25 03:50:15;;;;;;;17.35;4.28;;;;;;;;;;6181872;23;20466;-74
2024/03/25 03:52:41;;;;;;;14.95;3.30;;;;;;;;;;6169724;23;20524;-74
2024/03/25 03:55:07;;;;;;;15.57;3.42;;;;;;;;;;6176904;23;20032;-74
2024/03/25 03:57:32;;;;;;;15.57;2.83;;;;;;;;;;6181862;23;20030;-74
2024/03/25 03:59:58;;;;;;;16.60;4.05;;;;;;;;;;6174652;23;20036;-74
2024/03/25 04:02:23;;;;;;;14.65;3.88;;;;;;;;;;6181633;23;20063;-74
2024/03/25 04:04:49;;;;;;;19.92;3.75;;;;;;;;;;6150431;23;20519;-74
2024/03/25 04:07:15;;;;;;;21.55;4.07;;;;;;;;;;6151833;23;20028;-75
2024/03/25 04:09:40;;;;;;;14.68;4.15;;;;;;;;;;6177632;23;20074;-74
2024/03/25 04:12:06;;;;;;;17.50;3.63;;;;;;;;;;6150974;23;20027;-74
2024/03/25 04:14:31;;;;;;;12.60;3.63;;;;;;;;;;6181884;23;20502;-74
2024/03/25 04:16:57;;;;;;;15.45;3.65;;;;;;;;;;6149827;23;20025;-74
2024/03/25 04:19:25;;;;;;;12.45;3.85;;;;;;;;;;6155944;23;20485;-74
2024/03/25 04:21:52;;;;;;;17.52;3.75;;;;;;;;;;6144191;23;20017;-74
2024/03/25 04:24:18;;;;;;;18.90;3.90;;;;;;;;;;6180528;23;20033;-74
2024/03/25 04:26:44;;;;;;;22.98;4.43;;;;;;;;;;6180900;23;20723;-74
2024/03/25 04:29:09;;;;;;;15.15;3.22;;;;;;;;;;6174660;23;20696;-73
2024/03/25 04:31:36;;;;;;;23.60;4.65;;;;;;;;;;6156798;23;20031;-74
2024/03/25 04:34:01;;;;;;;21.17;4.65;;;;;;;;;;6145618;23;20024;-73
2024/03/25 04:36:27;;;;;;;19.88;4.22;;;;;;;;;;6177461;23;20024;-74
2024/03/25 04:38:52;;;;;;;23.75;5.13;;;;;;;;;;6155354;23;20028;-73
2024/03/25 04:41:18;;;;;;;21.50;4.72;;;;;;;;;;6175103;23;20074;-74
2024/03/25 04:43:43;;;;;;;14.73;4.63;;;;;;;;;;6155992;23;20031;-74
2024/03/25 04:46:09;;;;;;;14.77;3.72;;;;;;;;;;6149457;23;20059;-74
2024/03/25 04:48:34;;;;;;;17.23;3.97;;;;;;;;;;6152518;23;20078;-74
2024/03/25 04:51:00;;;;;;;18.02;4.65;;;;;;;;;;6176382;23;20024;-75
2024/03/25 04:53:25;;;;;;;15.88;3.85;;;;;;;;;;6175875;23;20100;-74
2024/03/25 04:55:51;;;;;;;21.02;5.28;;;;;;;;;;6181272;23;20584;-74
2024/03/25 04:58:16;;;;;;;22.65;4.93;;;;;;;;;;6174117;23;20070;-74
2024/03/25 05:00:41;;;;;;;17.75;4.32;;;;;;;;;;6180263;23;20025;-73
2024/03/25 05:03:08;;;;;;;17.58;4.53;;;;;;;;;;6169939;23;20036;-73
2024/03/25 05:05:33;;;;;;;15.60;4.25;;;;;;;;;;6175163;23;20024;-74
2024/03/25 05:07:59;;;;;;;22.90;4.50;;;;;;;;;;6180665;23;20086;-75
2024/03/25 05:10:24;;;;;;;17.40;3.97;;;;;;;;;;6149673;23;20028;-74
2024/03/25 05:12:50;;;;;;;21.73;4.20;;;;;;;;;;6181099;23;20074;-74
2024/03/25 05:15:15;;;;;;;13.18;3.83;;;;;;;;;;6149459;23;20091;-74
2024/03/25 05:17:41;;;;;;;28.30;4.03;;;;;;;;;;6176136;23;20028;-74
2024/03/25 05:20:07;;;;;;;23.00;4.90;;;;;;;;;;6153501;23;20463;-74
2024/03/25 05:22:32;;;;;;;22.33;4.65;;;;;;;;;;6174354;23;20025;-74
2024/03/25 05:24:57;;;;;;;23.08;4.90;;;;;;;;;;6180885;23;20074;-74
2024/03/25 05:27:23;;;;;;;20.73;5.18;;;;;;;;;;6149262;23;20359;-74
2024/03/25 05:29:49;;;;;;;23.02;4.45;;;;;;;;;;6176964;23;20090;-74
2024/03/25 05:32:16;;;;;;;19.63;4.40;;;;;;;;;;6175627;23;20879;-76
2024/03/25 05:34:42;;;;;;;19.73;4.40;;;;;;;;;;6150848;23;20431;-75
2024/03/25 05:37:07;;;;;;;20.73;4.28;;;;;;;;;;6180805;23;20095;-75
2024/03/25 05:39:32;;;;;;;16.77;3.88;;;;;;;;;;6149159;23;20080;-75
2024/03/25 05:41:58;;;;;;;18.60;4.60;;;;;;;;;;6180981;23;20035;-75
2024/03/25 05:44:23;;;;;;;16.17;4.50;;;;;;;;;;6169801;23;20328;-75
2024/03/25 05:46:49;;;;;;;21.85;3.78;;;;;;;;;;6175555;23;20525;-75
2024/03/25 05:49:14;;;;;;;13.25;4.32;;;;;;;;;;6180053;23;20025;-75
2024/03/25 05:51:39;;;;;;;13.75;3.60;;;;;;;;;;6174181;23;20025;-75
2024/03/25 05:54:05;;;;;;;13.00;3.75;;;;;;;;;;6156363;23;20020;-75
2024/03/25 05:56:30;;;;;;;17.67;4.20;;;;;;;;;;6174693;23;20209;-76
2024/03/25 05:58:56;;;;;;;17.55;3.72;;;;;;;;;;6175373;23;20027;-75
2024/03/25 06:01:22;;;;;;;16.02;3.70;;;;;;;;;;6152216;23;20020;-76
2024/03/25 06:03:48;;;;;;;19.83;3.90;;;;;;;;;;6172154;23;20035;-75
2024/03/25 06:06:13;;;;;;;18.98;4.35;;;;;;;;;;6181464;23;20028;-75
2024/03/25 06:08:39;;;;;;;22.50;4.85;;;;;;;;;;6173898;23;20025;-76
2024/03/25 06:11:04;;;;;;;22.15;4.97;;;;;;;;;;6182010;23;20029;-75
2024/03/25 06:13:30;;;;;;;13.57;3.20;;;;;;;;;;6178735;23;20050;-76
2024/03/25 06:15:55;;;;;;;21.13;4.55;;;;;;;;;;6171412;23;20359;-75
2024/03/25 06:18:20;;;;;;;16.63;4.15;;;;;;;;;;6158192;23;20028;-75
2024/03/25 06:20:46;;;;;;;22.75;4.32;;;;;;;;;;6150440;23;20059;-75
2024/03/25 06:23:21;;;;;;;14.30;3.53;;;;;;;;;;6183353;23;20025;-75
2024/03/25 06:25:46;;;;;;;15.98;4.30;;;;;;;;;;6176880;23;20025;-76
2024/03/25 06:28:12;;;;;;;25.48;4.65;;;;;;;;;;6178460;23;20478;-75
2024/03/25 06:36:06;;;;;;;33.38;5.00;;;;;;;;;;6182171;23;20032;-75
2024/03/25 06:38:32;;;;;;;20.63;4.97;;;;;;;;;;6150467;23;20028;-75
2024/03/25 06:40:58;;;;;;;21.63;4.13;;;;;;;;;;6156254;23;20079;-75
2024/03/25 06:43:23;;;;;;;20.92;4.15;;;;;;;;;;6175114;23;20063;-75
2024/03/25 06:45:49;;;;;;;14.45;3.75;;;;;;;;;;6200228;23;20025;-75
2024/03/25 06:48:14;;;;;;;23.17;4.60;;;;;;;;;;6158409;23;20119;-75
2024/03/25 06:50:40;;;;;;;18.48;4.20;;;;;;;;;;6177127;23;20115;-74
2024/03/25 06:53:05;;;;;;;20.05;4.88;;;;;;;;;;6182835;23;20025;-74
2024/03/25 06:55:31;;;;;;;18.42;4.30;;;;;;;;;;6173507;23;20030;-74
2024/03/25 06:57:56;;;;;;;16.08;4.05;;;;;;;;;;6149946;23;20089;-75
2024/03/25 07:00:22;;;;;;;16.77;3.25;;;;;;;;;;6182623;23;20071;-74
2024/03/25 07:02:48;;;;;;;21.95;4.43;;;;;;;;;;6151242;23;20024;-74
2024/03/25 07:05:13;;;;;;;21.30;4.38;;;;;;;;;;6183310;23;20076;-74
2024/03/25 07:07:39;;;;;;;22.30;4.45;;;;;;;;;;6175002;23;20021;-75
2024/03/25 07:10:04;;;;;;;29.00;4.18;;;;;;;;;;6177891;23;20028;-75
2024/03/25 07:12:30;;;;;;;19.02;4.32;;;;;;;;;;6177100;23;20043;-74
2024/03/25 07:14:55;;;;;;;17.88;4.57;;;;;;;;;;6151278;23;20048;-75
2024/03/25 07:17:25;;;;;;;27.85;5.07;;;;;;;;;;6158154;23;21082;-74
2024/03/25 07:19:51;;;;;;;22.67;4.60;;;;;;;;;;6175100;23;20440;-75
2024/03/25 07:22:17;;;;;;;29.00;5.05;;;;;;;;;;6182074;23;20043;-74
2024/03/25 07:24:43;;;;;;;21.80;3.78;;;;;;;;;;6178347;23;20813;-74
2024/03/25 07:27:09;;;;;;;19.13;4.75;;;;;;;;;;6170448;23;20024;-74
2024/03/25 07:29:35;;;;;;;20.63;5.25;;;;;;;;;;6182294;23;20020;-74
2024/03/25 07:32:00;;;;;;;20.05;4.53;;;;;;;;;;6174717;23;20167;-75
2024/03/25 07:34:26;;;;;;;15.60;4.53;;;;;;;;;;6157219;23;20020;-75
2024/03/25 07:36:52;;;;;;;20.60;4.10;;;;;;;;;;6174368;23;20024;-76
2024/03/25 07:39:17;;;;;;;23.73;4.68;;;;;;;;;;6176731;23;20544;-74
2024/03/25 07:41:42;;;;;;;19.98;4.43;;;;;;;;;;6177689;23;20585;-73
2024/03/25 07:44:08;;;;;;;18.98;4.18;;;;;;;;;;6150195;23;20063;-75
2024/03/25 07:46:34;;;;;;;23.90;4.32;;;;;;;;;;6183012;23;20037;-74
2024/03/25 07:48:59;;;;;;;13.13;3.38;;;;;;;;;;6174790;23;20184;-74
2024/03/25 07:51:25;;;;;;;19.33;4.22;;;;;;;;;;6182470;23;20032;-75
2024/03/25 07:53:50;;;;;;;17.55;4.80;;;;;;;;;;6177524;23;20021;-75
2024/03/25 07:56:16;;;;;;;20.35;5.15;;;;;;;;;;6171251;23;20055;-74
2024/03/25 07:58:41;;;;;;;13.90;4.18;;;;;;;;;;6181752;23;20071;-74
2024/03/25 08:01:07;;;;;;;19.27;4.30;;;;;;;;;;6175622;23;20092;-75
2024/03/25 08:03:33;;;;;;;16.40;4.00;;;;;;;;;;6181539;23;20036;-74
2024/03/25 08:05:58;;;;;;;14.43;4.40;;;;;;;;;;6174814;23;20024;-74
2024/03/25 08:08:24;;;;;;;21.42;4.80;;;;;;;;;;6175541;23;20032;-75
2024/03/25 08:10:50;;;;;;;15.38;4.45;;;;;;;;;;6177318;23;20024;-74
2024/03/25 08:13:15;;;;;;;14.75;4.10;;;;;;;;;;6174785;23;20107;-75
2024/03/25 08:15:41;;;;;;;20.67;4.10;;;;;;;;;;6181731;23;20051;-75
2024/03/25 08:18:06;;;;;;;15.85;4.18;;;;;;;;;;6150673;23;20088;-75
2024/03/25 08:20:32;;;;;;;21.23;5.90;;;;;;;;;;6181390;23;20017;-74
2024/03/25 08:22:57;;;;;;;22.40;4.72;;;;;;;;;;6180617;23;20422;-74
2024/03/25 08:25:23;;;;;;;17.67;3.63;;;;;;;;;;6170989;23;20020;-75
2024/03/25 08:27:48;;;;;;;15.02;3.97;;;;;;;;;;6180766;23;20027;-76
2024/03/25 08:30:13;;;;;;;18.30;4.45;;;;;;;;;;6174190;23;20023;-75
2024/03/25 08:32:39;;;;;;;18.83;4.57;;;;;;;;;;6176308;23;20032;-75
2024/03/25 08:35:04;;;;;;;22.50;5.18;;;;;;;;;;6176112;23;20028;-74
2024/03/25 08:37:30;;;;;;;15.27;3.92;;;;;;;;;;6172277;23;20055;-76
2024/03/25 08:39:55;;;;;;;15.68;4.75;;;;;;;;;;6180903;23;20111;-76
2024/03/25 08:42:21;;;;;;;17.70;5.00;;;;;;;;;;6174049;23;20024;-75
2024/03/25 08:44:46;;;;;;;21.55;5.65;;;;;;;;;;6154704;23;20083;-75
2024/03/25 08:47:12;;;;;;;16.38;4.65;;;;;;;;;;6175929;23;20031;-74
2024/03/25 08:49:37;;;;;;;16.13;4.28;;;;;;;;;;6171658;23;20017;-75
2024/03/25 08:52:03;;;;;;;18.73;5.05;;;;;;;;;;6180802;23;20016;-77
2024/03/25 08:54:28;;;;;;;12.75;3.72;;;;;;;;;;6173320;23;20051;-77
2024/03/25 08:56:54;;;;;;;16.65;3.67;;;;;;;;;;6180431;23;20064;-76
2024/03/25 08:59:20;;;;;;;17.40;4.10;;;;;;;;;;6178263;23;20025;-75
2024/03/25 09:01:45;;;;;;;13.15;3.35;;;;;;;;;;6145720;23;20024;-75
2024/03/25 09:04:11;;;;;;;23.33;3.63;;;;;;;;;;6177386;23;20027;-75
2024/03/25 09:06:37;;;;;;;11.48;2.60;;;;;;;;;;6173533;23;20020;-76
2024/03/25 09:11:47;;;;;;;16.15;3.67;;;;;;;;;;6173838;23;20025;-76
2024/03/25 09:14:12;;;;;;;21.00;3.85;;;;;;;;;;6176906;23;20067;-76
2024/03/25 09:16:38;;;;;;;12.48;3.22;;;;;;;;;;6176502;23;20025;-76
2024/03/25 09:19:03;;;;;;;15.70;3.83;;;;;;;;;;6173911;23;20292;-76
2024/03/25 09:21:29;;;;;;;17.25;4.13;;;;;;;;;;6181112;23;20020;-76
2024/03/25 09:23:56;;;;;;;16.27;4.07;;;;;;;;;;6173295;23;20107;-75
2024/03/25 09:26:22;;;;;;;13.05;3.90;;;;;;;;;;6155730;23;20016;-75
2024/03/25 09:28:47;;;;;;;20.27;4.13;;;;;;;;;;6177658;23;20100;-75
2024/03/25 09:31:13;;;;;;;13.02;3.45;;;;;;;;;;6169864;23;20021;-75
2024/03/25 09:33:38;;;;;;;12.40;2.75;;;;;;;;;;6155489;23;20004;-75
2024/03/25 09:36:04;;;;;;;8.98;2.70;;;;;;;;;;6148791;23;20036;-74
2024/03/25 09:38:31;;;;;;;14.68;3.97;;;;;;;;;;6179838;23;20024;-77
2024/03/25 09:40:57;;;;;;;9.52;2.75;;;;;;;;;;6149513;23;20433;-77
2024/03/25 09:43:32;;;;;;;14.32;2.90;;;;;;;;;;6174680;23;20025;-75
2024/03/25 09:45:59;;;;;;;22.17;3.78;;;;;;;;;;6175644;23;20025;-75
2024/03/25 09:48:24;;;;;;;15.13;3.67;;;;;;;;;;6149502;23;20016;-74
2024/03/25 09:50:50;;;;;;;12.93;3.55;;;;;;;;;;6155026;23;20339;-74
2024/03/25 09:53:15;;;;;;;19.33;4.53;;;;;;;;;;6148964;23;20087;-75
2024/03/25 09:55:41;;;;;;;14.48;3.28;;;;;;;;;;6179445;23;20064;-75
2024/03/25 09:58:07;;;;;;;16.45;4.03;;;;;;;;;;6177514;23;20692;-76
2024/03/25 10:00:33;;;;;;;17.27;4.05;;;;;;;;;;6169879;23;20024;-75
2024/03/25 10:02:58;;;;;;;13.18;3.60;;;;;;;;;;6155443;23;20027;-76
2024/03/25 10:05:24;;;;;;;11.55;3.15;;;;;;;;;;6175212;23;20032;-74
2024/03/25 10:07:49;;;;;;;14.35;3.22;;;;;;;;;;6180143;23;20029;-75
2024/03/25 10:10:18;;;;;;;15.85;2.97;;;;;;;;;;6179763;23;20056;-75
2024/03/25 10:12:44;;;;;;;12.75;3.50;;;;;;;;;;6169847;23;20028;-75
2024/03/25 10:15:14;;;;;;;14.85;3.50;;;;;;;;;;6175025;23;20132;-75
2024/03/25 10:17:40;;;;;;;12.52;3.05;;;;;;;;;;6173465;23;20028;-74
2024/03/25 10:20:09;;;;;;;11.85;3.40;;;;;;;;;;6180416;23;20060;-78
2024/03/25 10:22:46;;;;;;;11.27;2.75;;;;;;;;;;6149524;23;20048;-75
2024/03/25 10:25:21;;;;;;;14.90;2.85;;;;;;;;;;6155892;23;20024;-75
2024/03/25 10:27:54;;;;;;;9.15;2.45;;;;;;;;;;6150935;23;20024;-76
2024/03/25 10:30:19;;;;;;;8.57;2.65;;;;;;;;;;6173740;23;20028;-76
2024/03/25 10:32:45;;;;;;;9.32;2.55;;;;;;;;;;6156103;23;20634;-76
2024/03/25 10:35:10;;;;;;;13.40;2.67;;;;;;;;;;6174410;23;20036;-74
2024/03/25 10:37:36;;;;;;;15.73;3.03;;;;;;;;;;6180588;23;20028;-75
2024/03/25 10:40:03;;;;;;;11.93;2.97;;;;;;;;;;6154144;23;20024;-75
2024/03/25 10:42:30;;;;;;;13.57;4.00;;;;;;;;;;6145833;23;20020;-77
2024/03/25 10:44:56;;;;;;;8.23;2.50;;;;;;;;;;6180615;23;20079;-75
2024/03/25 10:47:23;;;;;;;12.10;2.58;;;;;;;;;;6175175;23;20096;-76
2024/03/25 10:49:49;;;;;;;9.88;3.30;;;;;;;;;;6181806;23;20043;-75
2024/03/25 10:52:15;;;;;;;11.30;2.92;;;;;;;;;;6151139;23;20347;-77
2024/03/25 10:54:42;;;;;;;8.70;2.95;;;;;;;;;;6176597;23;20028;-76
2024/03/25 10:57:08;;;;;;;9.90;2.58;;;;;;;;;;6153682;23;20327;-75
2024/03/25 10:59:37;;;;;;;9.60;2.58;;;;;;;;;;6175222;23;20020;-74
2024/03/25 11:02:03;;;;;;;9.13;2.47;;;;;;;;;;6183573;23;20633;-75
2024/03/25 11:04:30;;;;;;;10.07;2.80;;;;;;;;;;6177020;23;20032;-74
2024/03/25 11:07:05;;;;;;;10.10;2.72;;;;;;;;;;6183559;23;20028;-76
2024/03/25 11:09:31;;;;;;;6.22;2.63;;;;;;;;;;6155425;23;20055;-75
2024/03/25 11:11:58;;;;;;;12.70;2.45;;;;;;;;;;6172069;23;20024;-75
2024/03/25 11:14:27;;;;;;;9.20;2.92;;;;;;;;;;6183358;23;20021;-75
2024/03/25 11:16:53;;;;;;;8.38;2.47;;;;;;;;;;6176922;23;20424;-76
2024/03/25 11:19:20;;;;;;;11.85;2.75;;;;;;;;;;6158711;23;20024;-75
2024/03/25 11:21:46;;;;;;;9.13;3.10;;;;;;;;;;6180519;23;20348;-75
2024/03/25 11:24:12;;;;;;;8.88;3.10;;;;;;;;;;6174129;23;20063;-75
2024/03/25 11:26:41;;;;;;;9.27;2.97;;;;;;;;;;6183586;23;20028;-76
2024/03/25 11:29:06;;;;;;;11.73;3.00;;;;;;;;;;6176768;23;20036;-75
2024/03/25 11:31:38;;;;;;;9.02;2.45;;;;;;;;;;6158319;23;20024;-76
2024/03/25 11:34:04;;;;;;;7.93;2.30;;;;;;;;;;6177130;23;20021;-75
2024/03/25 11:36:30;;;;;;;13.65;2.97;;;;;;;;;;6152121;23;20115;-75
2024/03/25 11:39:09;;;;;;;7.10;2.15;;;;;;;;;;6179750;23;20031;-75
2024/03/25 11:41:35;;;;;;;;;;;;;;;;;;6177323;23;20028;-75
2024/03/25 11:44:01;;;;;;;14.20;3.17;;;;;;;;;;6183145;23;19924;-75
2024/03/25 11:46:26;;;;;;;16.02;2.85;;;;;;;;;;6175728;23;20082;-76
2024/03/25 11:48:55;;;;;;;12.43;3.20;;;;;;;;;;6182174;23;20801;-75
2024/03/25 11:51:20;;;;;;;;;;;;;;;;;;6153129;23;20021;-75
2024/03/25 11:53:46;;;;;;;12.20;2.85;;;;;;;;;;6175410;23;19920;-75
2024/03/25 11:56:11;;;;;;;10.85;3.25;;;;;;;;;;6181382;23;20025;-77
2024/03/25 11:58:40;;;;;;;11.45;3.58;;;;;;;;;;6150923;23;20505;-75
2024/03/25 12:01:05;;;;;;;10.30;3.10;;;;;;;;;;6183394;23;20104;-75
2024/03/25 12:03:33;;;;;;;11.13;3.42;;;;;;;;;;6176744;23;20021;-76
2024/03/25 12:05:58;;;;;;;10.03;3.30;;;;;;;;;;6150735;23;20575;-75
2024/03/25 12:08:27;;;;;;;11.00;3.17;;;;;;;;;;6158080;23;20025;-76
2024/03/25 12:13:40;;;;;;;7.85;2.70;;;;;;;;;;6182208;23;20071;-76
2024/03/25 12:16:07;;;;;;;;;;;;;;;;;;6176735;23;20024;-75
2024/03/25 12:18:33;;;;;;;10.00;2.97;;;;;;;;;;6178907;23;20394;-75
2024/03/25 12:20:59;;;;;;;7.72;2.70;;;;;;;;;;6178597;23;20048;-77
2024/03/25 12:23:28;;;;;;;11.55;3.60;;;;;;;;;;6176366;23;20556;-77
2024/03/25 12:25:53;;;;;;;9.63;3.47;;;;;;;;;;6159029;23;20052;-77
2024/03/25 12:28:19;;;;;;;7.05;2.35;;;;;;;;;;6152139;23;20021;-77
2024/03/25 12:30:51;;;;;;;8.90;3.22;;;;;;;;;;6183178;23;20233;-77
2024/03/25 12:33:17;;;;;;;7.85;3.10;;;;;;;;;;6169888;23;20024;-77
2024/03/25 12:35:49;;;;;;;6.90;3.05;;;;;;;;;;6177873;23;20024;-76
2024/03/25 12:38:28;;;;;;;10.40;3.53;;;;;;;;;;6183025;23;20032;-76
2024/03/25 12:41:03;;;;;;;7.70;3.55;;;;;;;;;;6175899;23;20359;-77
2024/03/25 12:43:28;;;;;;;9.60;3.67;;;;;;;;;;6158331;23;20332;-77
2024/03/25 12:45:54;;;;;;;10.63;3.28;;;;;;;;;;6172932;23;20032;-77
2024/03/25 12:48:19;;;;;;;8.35;2.78;;;;;;;;;;6153431;23;20099;-77
2024/03/25 12:50:45;;;;;;;9.07;3.72;;;;;;;;;;6156947;23;20028;-77
2024/03/25 12:53:16;;;;;;;9.77;3.10;;;;;;;;;;6153809;23;20028;-77
2024/03/25 12:55:41;;;;;;;8.20;3.40;;;;;;;;;;6182684;23;20032;-77
2024/03/25 12:58:07;;;;;;;8.43;2.78;;;;;;;;;;6150993;23;20351;-77
2024/03/25 13:00:32;;;;;;;10.60;3.70;;;;;;;;;;6177470;23;20071;-77
2024/03/25 13:02:58;;;;;;;8.20;3.50;;;;;;;;;;6171848;23;20028;-75
2024/03/25 13:05:23;;;;;;;10.13;3.95;;;;;;;;;;6181932;23;20031;-75
2024/03/25 13:07:49;;;;;;;10.07;3.65;;;;;;;;;;6182111;23;20032;-75
2024/03/25 13:10:14;;;;;;;11.20;3.67;;;;;;;;;;6149366;23;20028;-75
2024/03/25 13:12:39;;;;;;;9.15;3.33;;;;;;;;;;6155283;23;20094;-75
2024/03/25 13:15:05;;;;;;;9.00;3.28;;;;;;;;;;6145396;23;20525;-75
2024/03/25 13:17:30;;;;;;;5.63;2.72;;;;;;;;;;6158002;23;20347;-76
2024/03/25 13:19:56;;;;;;;8.18;3.42;;;;;;;;;;6181619;23;20370;-75
2024/03/25 13:22:21;;;;;;;5.90;3.15;;;;;;;;;;6175112;23;20064;-76
2024/03/25 13:24:47;;;;;;;5.95;2.80;;;;;;;;;;6181247;23;20376;-76
2024/03/25 13:27:13;;;;;;;7.13;2.97;;;;;;;;;;6171050;23;20016;-75
2024/03/25 13:29:38;;;;;;;6.63;2.88;;;;;;;;;;6177501;23;20016;-76
2024/03/25 13:32:03;;;;;;;6.90;2.63;;;;;;;;;;6182306;23;20023;-76
2024/03/25 13:34:29;;;;;;;6.82;2.40;;;;;;;;;;6174503;23;20052;-76
2024/03/25 13:36:55;;;;;;;7.30;2.72;;;;;;;;;;6181047;23;21009;-76
2024/03/25 13:39:20;;;;;;;7.25;2.92;;;;;;;;;;6149746;23;20024;-76
2024/03/25 13:41:46;;;;;;;8.23;2.45;;;;;;;;;;6177633;23;20032;-76
2024/03/25 13:44:11;;;;;;;6.95;2.83;;;;;;;;;;6152716;23;20027;-75
2024/03/25 13:46:37;;;;;;;8.25;2.80;;;;;;;;;;6174382;23;20351;-75
2024/03/25 13:49:02;;;;;;;6.05;2.60;;;;;;;;;;6182209;23;20075;-75
2024/03/25 13:51:28;;;;;;;7.65;2.92;;;;;;;;;;6150185;23;20032;-75
2024/03/25 13:53:53;;;;;;;6.22;2.35;;;;;;;;;;6181945;23;20343;-75
2024/03/25 13:56:19;;;;;;;6.72;2.60;;;;;;;;;;6174208;23;20539;-75
2024/03/25 13:58:44;;;;;;;5.10;2.50;;;;;;;;;;6175150;23;20288;-76
2024/03/25 14:01:10;;;;;;;6.65;2.38;;;;;;;;;;6182557;23;20051;-76
2024/03/25 14:03:35;;;;;;;6.45;2.67;;;;;;;;;;6175558;23;20020;-76
2024/03/25 14:06:00;;;;;;;9.10;2.70;;;;;;;;;;6181629;23;20020;-76
2024/03/25 14:08:26;;;;;;;6.85;2.55;;;;;;;;;;6175015;23;20016;-76
2024/03/25 14:10:58;;;;;;;8.82;2.80;;;;;;;;;;6151508;23;20435;-77
2024/03/25 14:13:24;;;;;;;5.75;2.38;;;;;;;;;;6177298;23;20031;-76
2024/03/25 14:15:49;;;;;;;6.50;2.72;;;;;;;;;;6174422;23;20024;-76
2024/03/25 14:18:15;;;;;;;6.65;2.70;;;;;;;;;;6182131;23;20435;-76
2024/03/25 14:20:40;;;;;;;5.55;2.70;;;;;;;;;;6173843;23;20072;-76
2024/03/25 14:23:06;;;;;;;7.07;2.58;;;;;;;;;;6156949;23;20051;-75
2024/03/25 14:25:32;;;;;;;4.05;2.55;;;;;;;;;;6151654;23;20066;-76
2024/03/25 14:27:58;;;;;;;4.07;2.50;;;;;;;;;;6170982;23;20029;-76
2024/03/25 14:30:23;;;;;;;4.97;2.45;;;;;;;;;;6181702;23;20025;-75
2024/03/25 14:32:49;;;;;;;6.25;2.35;;;;;;;;;;6174857;23;20050;-76
2024/03/25 14:35:14;;;;;;;5.20;2.28;;;;;;;;;;6157972;23;20052;-76
2024/03/25 14:37:39;;;;;;;4.82;2.30;;;;;;;;;;6157195;23;20743;-75